sensor_id;sensor_type;location;lat;lon;timestamp;pressure;altitude;pressure_sealevel;temperature;humidity
27712;BME280;2377;51.734;8.950;2023-02-13T00:00:13;99941.31;;;7.50;100.00
27712;BME280;2377;51.734;8.950;2023-02-13T00:02:40;99939.56;;;7.51;100.00
27712;BME280;2377;51.734;8.950;2023-02-13T00:05:07;99936.25;;;7.50;100.00
27712;BME280;2377;51.734;8.950;2023-02-13T00:07:34;99937.97;;;7.50;100.00
27712;BME280;2377;51.734;8.950;2023-02-13T00:10:03;99945.59;;;7.50;100.00
27712;BME280;2377;51.734;8.950;2023-02-13T00:12:31;99942.38;;;7.48;100.00
27712;BME280;2377;51.734;8.950;2023-02-13T00:14:58;99937.28;;;7.48;100.00
27712;BME280;2377;51.734;8.950;2023-02-13T00:17:25;99936.38;;;7.49;100.00
27712;BME280;2377;51.734;8.950;2023-02-13T00:19:52;99930.47;;;7.48;100.00
27712;BME280;2377;51.734;8.950;2023-02-13T00:22:19;99933.81;;;7.49;100.00
27712;BME280;2377;51.734;8.950;2023-02-13T00:24:46;99935.41;;;7.50;100.00
27712;BME280;2377;51.734;8.950;2023-02-13T00:27:15;99931.00;;;7.52;100.00
27712;BME280;2377;51.734;8.950;2023-02-13T00:29:42;99935.16;;;7.53;100.00
27712;BME280;2377;51.734;8.950;2023-02-13T00:32:08;99936.63;;;7.55;100.00
27712;BME280;2377;51.734;8.950;2023-02-13T00:34:35;99938.34;;;7.55;100.00
27712;BME280;2377;51.734;8.950;2023-02-13T00:37:02;99938.34;;;7.55;100.00
27712;BME280;2377;51.734;8.950;2023-02-13T00:39:29;99939.97;;;7.56;100.00
27712;BME280;2377;51.734;8.950;2023-02-13T00:41:56;99937.53;;;7.54;100.00
27712;BME280;2377;51.734;8.950;2023-02-13T00:44:25;99931.78;;;7.52;100.00
27712;BME280;2377;51.734;8.950;2023-02-13T00:46:52;99929.53;;;7.49;100.00
27712;BME280;2377;51.734;8.950;2023-02-13T00:49:18;99934.63;;;7.49;100.00
27712;BME280;2377;51.734;8.950;2023-02-13T00:51:46;99934.63;;;7.49;100.00
27712;BME280;2377;51.734;8.950;2023-02-13T00:54:13;99937.28;;;7.48;100.00
27712;BME280;2377;51.734;8.950;2023-02-13T00:56:40;99938.13;;;7.48;100.00
27712;BME280;2377;51.734;8.950;2023-02-13T00:59:06;99927.94;;;7.48;100.00
27712;BME280;2377;51.734;8.950;2023-02-13T01:01:35;99928.72;;;7.49;100.00
27712;BME280;2377;51.734;8.950;2023-02-13T01:04:02;99929.53;;;7.49;100.00
27712;BME280;2377;51.734;8.950;2023-02-13T01:06:29;99925.53;;;7.47;100.00
27712;BME280;2377;51.734;8.950;2023-02-13T01:08:56;99927.69;;;7.41;100.00
27712;BME280;2377;51.734;8.950;2023-02-13T01:11:23;99931.72;;;7.34;100.00
27712;BME280;2377;51.734;8.950;2023-02-13T01:13:50;99927.84;;;7.30;100.00
27712;BME280;2377;51.734;8.950;2023-02-13T01:16:17;99929.44;;;7.31;100.00
27712;BME280;2377;51.734;8.950;2023-02-13T01:18:46;99927.19;;;7.28;100.00
27712;BME280;2377;51.734;8.950;2023-02-13T01:21:17;99929.59;;;7.30;100.00
27712;BME280;2377;51.734;8.950;2023-02-13T01:23:45;99927.84;;;7.30;100.00
27712;BME280;2377;51.734;8.950;2023-02-13T01:26:18;99925.44;;;7.29;100.00
27712;BME280;2377;51.734;8.950;2023-02-13T01:28:46;99927.84;;;7.30;100.00
27712;BME280;2377;51.734;8.950;2023-02-13T01:31:13;99923.44;;;7.32;100.00
27712;BME280;2377;51.734;8.950;2023-02-13T01:33:40;99921.56;;;7.34;100.00
27712;BME280;2377;51.734;8.950;2023-02-13T01:36:11;99919.00;;;7.34;100.00
27712;BME280;2377;51.734;8.950;2023-02-13T01:38:39;99921.81;;;7.31;100.00
27712;BME280;2377;51.734;8.950;2023-02-13T01:41:06;99921.00;;;7.31;100.00
27712;BME280;2377;51.734;8.950;2023-02-13T01:43:50;99927.84;;;7.30;100.00
27712;BME280;2377;51.734;8.950;2023-02-13T01:46:24;99921.44;;;7.26;100.00
27712;BME280;2377;51.734;8.950;2023-02-13T01:48:56;99929.06;;;7.26;100.00
27712;BME280;2377;51.734;8.950;2023-02-13T01:51:32;99922.66;;;7.22;100.00
27712;BME280;2377;51.734;8.950;2023-02-13T01:54:05;99921.31;;;7.18;100.00
27712;BME280;2377;51.734;8.950;2023-02-13T01:56:37;99919.84;;;7.15;100.00
27712;BME280;2377;51.734;8.950;2023-02-13T01:59:14;99915.69;;;7.14;100.00
27712;BME280;2377;51.734;8.950;2023-02-13T02:01:43;99911.16;;;7.18;100.00
27712;BME280;2377;51.734;8.950;2023-02-13T02:04:16;99905.81;;;7.11;100.00
27712;BME280;2377;51.734;8.950;2023-02-13T02:06:53;99898.19;;;7.11;100.00
27712;BME280;2377;51.734;8.950;2023-02-13T02:09:27;99904.34;;;7.09;100.00
27712;BME280;2377;51.734;8.950;2023-02-13T02:12:05;99911.31;;;7.07;100.00
27712;BME280;2377;51.734;8.950;2023-02-13T02:14:34;99904.75;;;7.04;100.00
27712;BME280;2377;51.734;8.950;2023-02-13T02:17:01;99899.13;;;7.01;100.00
27712;BME280;2377;51.734;8.950;2023-02-13T02:19:37;99904.38;;;6.99;100.00
27712;BME280;2377;51.734;8.950;2023-02-13T02:22:45;99894.31;;;6.97;100.00
27712;BME280;2377;51.734;8.950;2023-02-13T02:25:55;99896.47;;;6.92;100.00
27712;BME280;2377;51.734;8.950;2023-02-13T02:29:17;99896.88;;;6.88;100.00
27712;BME280;2377;51.734;8.950;2023-02-13T02:32:26;99882.84;;;6.84;100.00
27712;BME280;2377;51.734;8.950;2023-02-13T02:35:11;99891.81;;;6.88;100.00
27712;BME280;2377;51.734;8.950;2023-02-13T02:37:58;99891.41;;;6.92;100.00
27712;BME280;2377;51.734;8.950;2023-02-13T02:40:37;99887.91;;;6.93;100.00
27712;BME280;2377;51.734;8.950;2023-02-13T02:43:25;99890.72;;;6.90;100.00
27712;BME280;2377;51.734;8.950;2023-02-13T02:46:07;99886.72;;;6.88;100.00
27712;BME280;2377;51.734;8.950;2023-02-13T02:48:47;99880.56;;;6.90;100.00
27712;BME280;2377;51.734;8.950;2023-02-13T02:51:40;99881.50;;;6.89;100.00
27712;BME280;2377;51.734;8.950;2023-02-13T02:54:16;99877.72;;;6.93;100.00
27712;BME280;2377;51.734;8.950;2023-02-13T02:57:06;99880.03;;;6.96;100.00
27712;BME280;2377;51.734;8.950;2023-02-13T02:59:36;99877.47;;;6.96;100.00
27712;BME280;2377;51.734;8.950;2023-02-13T03:02:23;99875.84;;;6.95;100.00
27712;BME280;2377;51.734;8.950;2023-02-13T03:05:18;99874.25;;;6.94;100.00
27712;BME280;2377;51.734;8.950;2023-02-13T03:08:05;99872.13;;;6.90;100.00
27712;BME280;2377;51.734;8.950;2023-02-13T03:10:35;99865.59;;;6.87;100.00
27712;BME280;2377;51.734;8.950;2023-02-13T03:13:41;99872.25;;;6.88;100.00
27712;BME280;2377;51.734;8.950;2023-02-13T03:16:14;99862.25;;;6.87;100.00
27712;BME280;2377;51.734;8.950;2023-02-13T03:19:00;99863.16;;;6.86;100.00
27712;BME280;2377;51.734;8.950;2023-02-13T03:21:54;99860.13;;;6.82;100.00
27712;BME280;2377;51.734;8.950;2023-02-13T03:24:51;99852.91;;;6.77;100.00
27712;BME280;2377;51.734;8.950;2023-02-13T03:27:33;99851.81;;;6.80;100.00
27712;BME280;2377;51.734;8.950;2023-02-13T03:30:33;99850.75;;;6.83;100.00
27712;BME280;2377;51.734;8.950;2023-02-13T03:33:18;99841.66;;;6.80;100.00
27712;BME280;2377;51.734;8.950;2023-02-13T03:35:57;99847.25;;;6.84;100.00
27712;BME280;2377;51.734;8.950;2023-02-13T03:38:54;99848.88;;;6.85;100.00
27712;BME280;2377;51.734;8.950;2023-02-13T03:41:29;99844.59;;;6.85;100.00
27712;BME280;2377;51.734;8.950;2023-02-13T03:44:10;99845.50;;;6.84;100.00
27712;BME280;2377;51.734;8.950;2023-02-13T03:46:43;99844.19;;;6.80;100.00
27712;BME280;2377;51.734;8.950;2023-02-13T03:49:19;99849.41;;;6.78;100.00
27712;BME280;2377;51.734;8.950;2023-02-13T03:52:12;99848.31;;;6.81;100.00
27712;BME280;2377;51.734;8.950;2023-02-13T03:54:49;99858.38;;;6.83;100.00
27712;BME280;2377;51.734;8.950;2023-02-13T03:57:40;99860.13;;;6.82;100.00
27712;BME280;2377;51.734;8.950;2023-02-13T04:00:33;99864.78;;;6.77;100.00
27712;BME280;2377;51.734;8.950;2023-02-13T04:03:11;99852.34;;;6.74;100.00
27712;BME280;2377;51.734;8.950;2023-02-13T04:05:43;99857.16;;;6.77;100.00
27712;BME280;2377;51.734;8.950;2023-02-13T04:08:13;99857.16;;;6.77;100.00
27712;BME280;2377;51.734;8.950;2023-02-13T04:10:50;99853.69;;;6.78;100.00
27712;BME280;2377;51.734;8.950;2023-02-13T04:13:41;99858.91;;;6.76;100.00
27712;BME280;2377;51.734;8.950;2023-02-13T04:16:15;99854.91;;;6.74;100.00
27712;BME280;2377;51.734;8.950;2023-02-13T04:18:45;99859.84;;;6.75;100.00
27712;BME280;2377;51.734;8.950;2023-02-13T04:21:12;99858.09;;;6.76;100.00
27712;BME280;2377;51.734;8.950;2023-02-13T04:23:39;99855.69;;;6.74;100.00
27712;BME280;2377;51.734;8.950;2023-02-13T04:26:16;99860.78;;;6.74;100.00
27712;BME280;2377;51.734;8.950;2023-02-13T04:28:43;99855.84;;;6.73;100.00
27712;BME280;2377;51.734;8.950;2023-02-13T04:31:10;99858.22;;;6.74;100.00
27712;BME280;2377;51.734;8.950;2023-02-13T04:33:37;99868.94;;;6.78;100.00
27712;BME280;2377;51.734;8.950;2023-02-13T04:36:05;99863.84;;;6.78;100.00
27712;BME280;2377;51.734;8.950;2023-02-13T04:38:32;99865.44;;;6.79;100.00
27712;BME280;2377;51.734;8.950;2023-02-13T04:40:59;99870.81;;;6.76;100.00
27712;BME280;2377;51.734;8.950;2023-02-13T04:43:27;99860.94;;;6.73;100.00
27712;BME280;2377;51.734;8.950;2023-02-13T04:45:54;99862.81;;;6.71;100.00
27712;BME280;2377;51.734;8.950;2023-02-13T04:48:21;99863.47;;;6.73;100.00
27712;BME280;2377;51.734;8.950;2023-02-13T04:50:48;99859.19;;;6.73;100.00
27712;BME280;2377;51.734;8.950;2023-02-13T04:53:15;99860.25;;;6.71;100.00
27712;BME280;2377;51.734;8.950;2023-02-13T04:55:42;99854.50;;;6.69;100.00
27712;BME280;2377;51.734;8.950;2023-02-13T04:58:09;99858.25;;;6.65;100.00
27712;BME280;2377;51.734;8.950;2023-02-13T05:00:37;99851.69;;;6.62;100.00
27712;BME280;2377;51.734;8.950;2023-02-13T05:03:06;99853.44;;;6.62;100.00
27712;BME280;2377;51.734;8.950;2023-02-13T05:05:34;99857.56;;;6.63;100.00
27712;BME280;2377;51.734;8.950;2023-02-13T05:08:02;99856.66;;;6.64;100.00
27712;BME280;2377;51.734;8.950;2023-02-13T05:10:29;99860.28;;;6.61;100.00
27712;BME280;2377;51.734;8.950;2023-02-13T05:16:39;99860.53;;;6.58;100.00
27712;BME280;2377;51.734;8.950;2023-02-13T05:19:06;99851.44;;;6.55;100.00
27712;BME280;2377;51.734;8.950;2023-02-13T05:21:33;99858.38;;;6.53;100.00
27712;BME280;2377;51.734;8.950;2023-02-13T05:24:18;99851.72;;;6.52;100.00
27712;BME280;2377;51.734;8.950;2023-02-13T05:26:44;99850.91;;;6.52;100.00
27712;BME280;2377;51.734;8.950;2023-02-13T05:29:12;99844.09;;;6.52;100.00
27712;BME280;2377;51.734;8.950;2023-02-13T05:31:45;99855.59;;;6.56;100.00
27712;BME280;2377;51.734;8.950;2023-02-13T05:34:12;99848.91;;;6.55;100.00
27712;BME280;2377;51.734;8.950;2023-02-13T05:36:39;99856.78;;;6.52;100.00
27712;BME280;2377;51.734;8.950;2023-02-13T05:39:06;99853.72;;;6.49;100.00
27712;BME280;2377;51.734;8.950;2023-02-13T05:41:34;99849.03;;;6.44;100.00
27712;BME280;2377;51.734;8.950;2023-02-13T05:44:01;99846.25;;;6.38;100.00
27712;BME280;2377;51.734;8.950;2023-02-13T05:46:28;99853.88;;;6.38;100.00
27712;BME280;2377;51.734;8.950;2023-02-13T05:48:56;99860.94;;;6.34;100.00
27712;BME280;2377;51.734;8.950;2023-02-13T05:51:23;99860.41;;;6.30;100.00
27712;BME280;2377;51.734;8.950;2023-02-13T05:53:50;99858.13;;;6.27;100.00
27712;BME280;2377;51.734;8.950;2023-02-13T05:56:17;99858.28;;;6.26;100.00
27712;BME280;2377;51.734;8.950;2023-02-13T05:58:44;99861.75;;;6.25;100.00
27712;BME280;2377;51.734;8.950;2023-02-13T06:01:11;99858.91;;;6.28;100.00
27712;BME280;2377;51.734;8.950;2023-02-13T06:03:38;99861.75;;;6.25;100.00
27712;BME280;2377;51.734;8.950;2023-02-13T06:06:07;99862.00;;;6.22;100.00
27712;BME280;2377;51.734;8.950;2023-02-13T06:08:34;99868.97;;;6.20;100.00
27712;BME280;2377;51.734;8.950;2023-02-13T06:11:01;99873.91;;;6.21;100.00
27712;BME280;2377;51.734;8.950;2023-02-13T06:13:28;99876.44;;;6.21;100.00
27712;BME280;2377;51.734;8.950;2023-02-13T06:15:55;99875.38;;;6.24;100.00
27712;BME280;2377;51.734;8.950;2023-02-13T06:18:22;99875.09;;;6.27;100.00
27712;BME280;2377;51.734;8.950;2023-02-13T06:20:49;99868.16;;;6.29;100.00
27712;BME280;2377;51.734;8.950;2023-02-13T06:23:33;99869.34;;;6.25;100.00
27712;BME280;2377;51.734;8.950;2023-02-13T06:26:02;99883.00;;;6.24;100.00
27712;BME280;2377;51.734;8.950;2023-02-13T06:28:38;99878.72;;;6.24;100.00
27712;BME280;2377;51.734;8.950;2023-02-13T06:31:05;99888.75;;;6.26;100.00
27712;BME280;2377;51.734;8.950;2023-02-13T06:33:35;99888.47;;;6.29;100.00
27712;BME280;2377;51.734;8.950;2023-02-13T06:36:02;99888.34;;;6.30;100.00
27712;BME280;2377;51.734;8.950;2023-02-13T06:38:30;99886.06;;;6.27;100.00
27712;BME280;2377;51.734;8.950;2023-02-13T06:41:00;99895.41;;;6.27;100.00
27712;BME280;2377;51.734;8.950;2023-02-13T06:43:28;99901.84;;;6.31;100.00
27712;BME280;2377;51.734;8.950;2023-02-13T06:45:55;99903.72;;;6.29;100.00
27712;BME280;2377;51.734;8.950;2023-02-13T06:48:22;99905.31;;;6.30;100.00
27712;BME280;2377;51.734;8.950;2023-02-13T06:50:56;99911.59;;;6.26;100.00
27712;BME280;2377;51.734;8.950;2023-02-13T06:53:23;99911.34;;;6.29;100.00
27712;BME280;2377;51.734;8.950;2023-02-13T06:55:51;99906.13;;;6.30;100.00
27712;BME280;2377;51.734;8.950;2023-02-13T06:58:21;99914.00;;;6.27;100.00
27712;BME280;2377;51.734;8.950;2023-02-13T07:00:48;99915.75;;;6.27;100.00
27712;BME280;2377;51.734;8.950;2023-02-13T07:03:15;99913.88;;;6.29;100.00
27712;BME280;2377;51.734;8.950;2023-02-13T07:05:43;99920.44;;;6.31;100.00
27712;BME280;2377;51.734;8.950;2023-02-13T07:08:12;99924.56;;;6.32;100.00
27712;BME280;2377;51.734;8.950;2023-02-13T07:10:40;99921.91;;;6.34;100.00
27712;BME280;2377;51.734;8.950;2023-02-13T07:13:08;99926.84;;;6.35;100.00
27712;BME280;2377;51.734;8.950;2023-02-13T07:15:37;99926.69;;;6.37;100.00
27712;BME280;2377;51.734;8.950;2023-02-13T07:18:05;99922.28;;;6.39;100.00
27712;BME280;2377;51.734;8.950;2023-02-13T07:20:32;99927.13;;;6.42;100.00
27712;BME280;2377;51.734;8.950;2023-02-13T07:23:00;99924.59;;;6.42;100.00
27712;BME280;2377;51.734;8.950;2023-02-13T07:25:28;99923.91;;;6.40;100.00
27712;BME280;2377;51.734;8.950;2023-02-13T07:28:00;99921.22;;;6.42;100.00
27712;BME280;2377;51.734;8.950;2023-02-13T07:30:29;99921.38;;;6.40;100.00
27712;BME280;2377;51.734;8.950;2023-02-13T07:32:59;99914.69;;;6.39;100.00
27712;BME280;2377;51.734;8.950;2023-02-13T07:35:26;99915.34;;;6.41;100.00
27712;BME280;2377;51.734;8.950;2023-02-13T07:37:54;99927.66;;;6.36;100.00
27712;BME280;2377;51.734;8.950;2023-02-13T07:40:21;99926.69;;;6.37;100.00
27712;BME280;2377;51.734;8.950;2023-02-13T07:42:48;99931.66;;;6.39;100.00
27712;BME280;2377;51.734;8.950;2023-02-13T07:45:15;99930.72;;;6.40;100.00
27712;BME280;2377;51.734;8.950;2023-02-13T07:47:42;99920.03;;;6.36;100.00
27712;BME280;2377;51.734;8.950;2023-02-13T07:50:11;99918.28;;;6.37;100.00
27712;BME280;2377;51.734;8.950;2023-02-13T07:52:38;99925.78;;;6.38;100.00
27712;BME280;2377;51.734;8.950;2023-02-13T07:55:07;99925.63;;;6.40;100.00
27712;BME280;2377;51.734;8.950;2023-02-13T07:57:36;99928.84;;;6.42;100.00
27712;BME280;2377;51.734;8.950;2023-02-13T08:00:04;99922.97;;;6.41;100.00
27712;BME280;2377;51.734;8.950;2023-02-13T08:02:31;99933.13;;;6.41;100.00
27712;BME280;2377;51.734;8.950;2023-02-13T08:04:58;99937.41;;;6.41;100.00
27712;BME280;2377;51.734;8.950;2023-02-13T08:07:26;99933.13;;;6.41;100.00
27712;BME280;2377;51.734;8.950;2023-02-13T08:09:53;99936.34;;;6.43;100.00
27712;BME280;2377;51.734;8.950;2023-02-13T08:12:38;99928.44;;;6.46;100.00
27712;BME280;2377;51.734;8.950;2023-02-13T08:15:08;99932.63;;;6.47;100.00
27712;BME280;2377;51.734;8.950;2023-02-13T08:17:35;99926.47;;;6.50;100.00
27712;BME280;2377;51.734;8.950;2023-02-13T08:20:04;99932.34;;;6.50;100.00
27712;BME280;2377;51.734;8.950;2023-02-13T08:22:35;99930.47;;;6.52;100.00
27712;BME280;2377;51.734;8.950;2023-02-13T08:25:03;99929.69;;;6.52;100.00
27712;BME280;2377;51.734;8.950;2023-02-13T08:27:30;99928.34;;;6.48;100.00
27712;BME280;2377;51.734;8.950;2023-02-13T08:29:58;99931.00;;;6.46;100.00
27712;BME280;2377;51.734;8.950;2023-02-13T08:32:26;99932.75;;;6.46;100.00
27712;BME280;2377;51.734;8.950;2023-02-13T08:34:53;99935.94;;;6.48;100.00
27712;BME280;2377;51.734;8.950;2023-02-13T08:37:20;99926.59;;;6.48;100.00
27712;BME280;2377;51.734;8.950;2023-02-13T08:39:48;99936.34;;;6.53;100.00
27712;BME280;2377;51.734;8.950;2023-02-13T08:42:15;99936.63;;;6.60;100.00
27712;BME280;2377;51.734;8.950;2023-02-13T08:44:42;99924.19;;;6.66;100.00
27712;BME280;2377;51.734;8.950;2023-02-13T08:47:09;99920.56;;;6.69;100.00
27712;BME280;2377;51.734;8.950;2023-02-13T08:49:36;99915.63;;;6.67;100.00
27712;BME280;2377;51.734;8.950;2023-02-13T08:52:03;99923.13;;;6.69;100.00
27712;BME280;2377;51.734;8.950;2023-02-13T08:54:32;99929.13;;;6.68;100.00
27712;BME280;2377;51.734;8.950;2023-02-13T08:57:01;99929.00;;;6.69;100.00
27712;BME280;2377;51.734;8.950;2023-02-13T08:59:28;99918.84;;;6.69;100.00
27712;BME280;2377;51.734;8.950;2023-02-13T09:01:56;99930.34;;;6.73;100.00
27712;BME280;2377;51.734;8.950;2023-02-13T09:04:23;99931.81;;;6.76;100.00
27712;BME280;2377;51.734;8.950;2023-02-13T09:06:50;99928.59;;;6.74;100.00
27712;BME280;2377;51.734;8.950;2023-02-13T09:09:17;99926.34;;;6.71;100.00
27712;BME280;2377;51.734;8.950;2023-02-13T09:11:44;99926.59;;;6.68;100.00
27712;BME280;2377;51.734;8.950;2023-02-13T09:14:12;99927.53;;;6.67;100.00
27712;BME280;2377;51.734;8.950;2023-02-13T09:16:39;99924.03;;;6.68;100.00
27712;BME280;2377;51.734;8.950;2023-02-13T09:19:06;99933.41;;;6.67;100.00
27712;BME280;2377;51.734;8.950;2023-02-13T09:21:33;99928.31;;;6.67;100.00
27712;BME280;2377;51.734;8.950;2023-02-13T09:24:00;99930.47;;;6.72;100.00
27712;BME280;2377;51.734;8.950;2023-02-13T09:26:27;99930.06;;;6.76;100.00
27712;BME280;2377;51.734;8.950;2023-02-13T09:28:54;99933.16;;;6.80;100.00
27712;BME280;2377;51.734;8.950;2023-02-13T09:31:22;99934.47;;;6.84;100.00
27712;BME280;2377;51.734;8.950;2023-02-13T09:34:16;99932.88;;;6.83;100.00
27712;BME280;2377;51.734;8.950;2023-02-13T09:37:18;99942.91;;;6.85;100.00
27712;BME280;2377;51.734;8.950;2023-02-13T09:39:47;99935.97;;;6.87;100.00
27712;BME280;2377;51.734;8.950;2023-02-13T09:42:20;99941.56;;;6.90;100.00
27712;BME280;2377;51.734;8.950;2023-02-13T09:44:52;99937.94;;;6.93;100.00
27712;BME280;2377;51.734;8.950;2023-02-13T09:47:29;99938.75;;;6.93;100.00
27712;BME280;2377;51.734;8.950;2023-02-13T09:50:03;99947.59;;;6.99;100.00
27712;BME280;2377;51.734;8.950;2023-02-13T09:52:33;99945.84;;;6.99;100.00
27712;BME280;2377;51.734;8.950;2023-02-13T09:55:02;99944.63;;;7.04;100.00
27712;BME280;2377;51.734;8.950;2023-02-13T09:57:35;99947.03;;;7.05;100.00
27712;BME280;2377;51.734;8.950;2023-02-13T10:00:13;99943.28;;;7.09;100.00
27712;BME280;2377;51.734;8.950;2023-02-13T10:03:13;99952.78;;;7.07;100.00
27712;BME280;2377;51.734;8.950;2023-02-13T10:05:55;99940.88;;;7.08;100.00
27712;BME280;2377;51.734;8.950;2023-02-13T10:08:47;99948.91;;;7.13;100.00
27712;BME280;2377;51.734;8.950;2023-02-13T10:11:35;99947.03;;;7.15;100.00
27712;BME280;2377;51.734;8.950;2023-02-13T10:14:15;99940.72;;;7.19;100.00
27712;BME280;2377;51.734;8.950;2023-02-13T10:16:49;99944.88;;;7.20;100.00
27712;BME280;2377;51.734;8.950;2023-02-13T10:19:33;99948.09;;;7.22;100.00
27712;BME280;2377;51.734;8.950;2023-02-13T10:22:16;99940.97;;;7.26;100.00
27712;BME280;2377;51.734;8.950;2023-02-13T10:24:48;99939.91;;;7.28;100.00
27712;BME280;2377;51.734;8.950;2023-02-13T10:27:22;99944.56;;;7.33;100.00
27712;BME280;2377;51.734;8.950;2023-02-13T10:29:55;99938.16;;;7.38;100.00
27712;BME280;2377;51.734;8.950;2023-02-13T10:32:48;99940.41;;;7.41;100.00
27712;BME280;2377;51.734;8.950;2023-02-13T10:35:23;99934.09;;;7.46;100.00
27712;BME280;2377;51.734;8.950;2023-02-13T10:37:56;99942.13;;;7.51;100.00
27712;BME280;2377;51.734;8.950;2023-02-13T10:40:31;99942.91;;;7.51;100.00
27712;BME280;2377;51.734;8.950;2023-02-13T10:43:06;99931.94;;;7.51;100.00
27712;BME280;2377;51.734;8.950;2023-02-13T10:45:58;99939.97;;;7.56;100.00
27712;BME280;2377;51.734;8.950;2023-02-13T10:48:48;99944.75;;;7.59;100.00
27712;BME280;2377;51.734;8.950;2023-02-13T10:51:29;99944.88;;;7.67;100.00
27712;BME280;2377;51.734;8.950;2023-02-13T10:54:21;99930.78;;;7.73;100.00
27712;BME280;2377;51.734;8.950;2023-02-13T10:57:01;99929.84;;;7.74;100.00
27712;BME280;2377;51.734;8.950;2023-02-13T10:59:53;99933.84;;;7.76;100.00
27712;BME280;2377;51.734;8.950;2023-02-13T11:02:25;99929.13;;;7.81;100.00
27712;BME280;2377;51.734;8.950;2023-02-13T11:04:59;99927.53;;;7.80;100.00
27712;BME280;2377;51.734;8.950;2023-02-13T11:07:30;99925.63;;;7.82;100.00
27712;BME280;2377;51.734;8.950;2023-02-13T11:10:04;99921.88;;;7.87;100.00
27712;BME280;2377;51.734;8.950;2023-02-13T11:12:34;99919.84;;;7.90;100.00
27712;BME280;2377;51.734;8.950;2023-02-13T11:15:05;99920.22;;;7.95;100.00
27712;BME280;2377;51.734;8.950;2023-02-13T11:17:39;99924.91;;;8.00;100.00
27712;BME280;2377;51.734;8.950;2023-02-13T11:20:28;99927.94;;;8.03;99.61
27712;BME280;2377;51.734;8.950;2023-02-13T11:23:17;99925.94;;;8.07;99.83
27712;BME280;2377;51.734;8.950;2023-02-13T11:25:55;99919.56;;;8.11;99.92
27712;BME280;2377;51.734;8.950;2023-02-13T11:28:26;99916.78;;;8.14;99.80
27712;BME280;2377;51.734;8.950;2023-02-13T11:31:11;99920.34;;;8.21;99.95
27712;BME280;2377;51.734;8.950;2023-02-13T11:33:55;99916.28;;;8.29;99.88
27712;BME280;2377;51.734;8.950;2023-02-13T11:36:26;99915.13;;;8.41;100.00
27712;BME280;2377;51.734;8.950;2023-02-13T11:39:01;99916.06;;;8.58;100.00
27712;BME280;2377;51.734;8.950;2023-02-13T11:41:39;99908.41;;;8.76;100.00
27712;BME280;2377;51.734;8.950;2023-02-13T11:44:21;99909.63;;;8.89;100.00
27712;BME280;2377;51.734;8.950;2023-02-13T11:46:53;99905.38;;;8.98;100.00
27712;BME280;2377;51.734;8.950;2023-02-13T11:49:22;99904.31;;;9.01;99.40
27712;BME280;2377;51.734;8.950;2023-02-13T11:51:53;99901.56;;;9.02;100.00
27712;BME280;2377;51.734;8.950;2023-02-13T11:58:24;99891.72;;;9.07;98.41
27712;BME280;2377;51.734;8.950;2023-02-13T12:01:24;99881.50;;;9.07;97.18
27712;BME280;2377;51.734;8.950;2023-02-13T12:04:03;99883.13;;;9.08;97.29
27712;BME280;2377;51.734;8.950;2023-02-13T12:06:31;99879.13;;;9.06;96.27
27712;BME280;2377;51.734;8.950;2023-02-13T12:09:10;99874.81;;;9.06;96.91
27712;BME280;2377;51.734;8.950;2023-02-13T12:11:44;99874.81;;;9.06;96.62
27712;BME280;2377;51.734;8.950;2023-02-13T12:14:21;99875.59;;;8.99;96.42
27712;BME280;2377;51.734;8.950;2023-02-13T12:16:52;99875.25;;;8.94;96.36
27712;BME280;2377;51.734;8.950;2023-02-13T12:19:24;99878.88;;;8.91;97.31
27712;BME280;2377;51.734;8.950;2023-02-13T12:22:27;99869.94;;;8.87;96.65
27712;BME280;2377;51.734;8.950;2023-02-13T12:25:30;99870.66;;;8.79;97.40
27712;BME280;2377;51.734;8.950;2023-02-13T12:28:12;99858.06;;;8.78;97.48
27712;BME280;2377;51.734;8.950;2023-02-13T12:34:48;99856.41;;;8.68;98.45
27712;BME280;2377;51.734;8.950;2023-02-13T12:37:48;99846.56;;;8.74;98.66
27712;BME280;2377;51.734;8.950;2023-02-13T12:41:12;99847.22;;;8.76;98.70
27712;BME280;2377;51.734;8.950;2023-02-13T12:44:35;99831.94;;;8.76;98.66
27712;BME280;2377;51.734;8.950;2023-02-13T12:47:15;99834.81;;;8.81;99.74
27712;BME280;2377;51.734;8.950;2023-02-13T12:50:05;99823.38;;;8.85;99.75
27712;BME280;2377;51.734;8.950;2023-02-13T12:52:49;99823.72;;;8.90;99.40
27712;BME280;2377;51.734;8.950;2023-02-13T12:55:34;99830.13;;;8.94;99.40
27712;BME280;2377;51.734;8.950;2023-02-13T12:58:29;99824.72;;;8.97;99.55
27712;BME280;2377;51.734;8.950;2023-02-13T13:01:12;99824.13;;;9.03;98.91
27712;BME280;2377;51.734;8.950;2023-02-13T13:03:56;99818.69;;;9.06;98.98
27712;BME280;2377;51.734;8.950;2023-02-13T13:06:56;99821.72;;;9.10;99.23
27712;BME280;2377;51.734;8.950;2023-02-13T13:10:13;99816.19;;;9.15;99.04
27712;BME280;2377;51.734;8.950;2023-02-13T13:12:55;99825.78;;;9.21;98.65
27712;BME280;2377;51.734;8.950;2023-02-13T13:15:36;99819.44;;;9.25;98.76
27712;BME280;2377;51.734;8.950;2023-02-13T13:18:18;99816.56;;;9.28;98.32
27712;BME280;2377;51.734;8.950;2023-02-13T13:21:07;99816.72;;;9.26;96.02
27712;BME280;2377;51.734;8.950;2023-02-13T13:24:36;99811.47;;;9.28;96.21
27712;BME280;2377;51.734;8.950;2023-02-13T13:27:20;99813.41;;;9.34;96.57
27712;BME280;2377;51.734;8.950;2023-02-13T13:29:55;99812.13;;;9.38;96.50
27712;BME280;2377;51.734;8.950;2023-02-13T13:32:25;99807.84;;;9.39;95.61
27712;BME280;2377;51.734;8.950;2023-02-13T13:34:55;99807.84;;;9.39;95.76
27712;BME280;2377;51.734;8.950;2023-02-13T13:37:32;99804.81;;;9.43;96.18
27712;BME280;2377;51.734;8.950;2023-02-13T13:40:25;99804.66;;;9.45;96.07
27712;BME280;2377;51.734;8.950;2023-02-13T13:43:02;99796.84;;;9.46;95.18
27712;BME280;2377;51.734;8.950;2023-02-13T13:45:39;99799.41;;;9.46;95.83
27712;BME280;2377;51.734;8.950;2023-02-13T13:48:42;99796.53;;;9.49;95.96
27712;BME280;2377;51.734;8.950;2023-02-13T13:51:17;99796.25;;;9.52;95.57
27712;BME280;2377;51.734;8.950;2023-02-13T13:54:31;99793.03;;;9.50;94.63
27712;BME280;2377;51.734;8.950;2023-02-13T13:57:10;99790.16;;;9.53;94.79
27712;BME280;2377;51.734;8.950;2023-02-13T14:00:26;99789.53;;;9.51;94.26
27712;BME280;2377;51.734;8.950;2023-02-13T14:03:21;99787.94;;;9.59;95.10
27712;BME280;2377;51.734;8.950;2023-02-13T14:06:03;99783.63;;;9.59;95.07